SBSM/RIA METAR and TAF weather

Enter ICAO airport designator
Station Type Date Time Source
SBSM METAR 2021/08/01 17:00 UTC NOAA

SBSM 011700Z 16003KT CAVOK 19/10 Q1027


Station Type Date Time Source
SBSM Decoded METAR 2021/08/01 17:00 UTC NOAA

Santa Maria Aero-Porto , Brazil (SBSM) 29-43S 053-42W
Aug 01, 2021 - 01:00 PM EDT / 2021.08.01 1700 UTC
Wind: from the SSE (160 degrees) at 3 MPH (3 KT):0
Visibility: greater than 7 mile(s):0
Temperature: 66 F (19 C)
Dew Point: 50 F (10 C)
Relative Humidity: 55%
Pressure (altimeter): 30.33 in. Hg (1027 hPa)
ob: SBSM 011700Z 16003KT CAVOK 19/10 Q1027
cycle: 17

Station Type Date Time Source
SBSM TAF 2021/08/01 12:27 UTC NOAA

TAF SBSM 010900Z 0112/0124 23005KT CAVOK TX12/0118Z TN09/0124Z
RMK PED

Example: see airport list